Terminal Aerodrome Forecast
Issued by NWS

Home | Current Version | Previous Version | Text Only | Print | Product List | Glossary On
Versions: 1 2 3 4 5 6 7 8 9 10 11 12 13 14 15 16 17 18 19
000
FTUS43 KIND 020100 AAA
TAFHUF
TAF AMD
KHUF 020128Z 0201/0224 34004KT P6SM SCT040 BKN100
      TEMPO 0201/0203 5SM -TSRA BKN040CB OVC100
     FM020300 34004KT P6SM FEW040 BKN100
      TEMPO 0207/0209 4SM BR
     FM020900 00000KT 4SM BR FEW040 BKN100
     FM021300 01004KT P6SM SCT100 SCT250
     FM021500 02008KT P6SM SCT030 SCT100 SCT250=

USA.gov is the U.S. government's official web portal to all federal, state and local government web resources and services.